sensor_id;sensor_type;location;lat;lon;timestamp;pressure;altitude;pressure_sealevel;temperature;humidity
61573;BME280;47465;43.094;12.434;2023-02-22T00:02:13;99059.72;;;9.32;100.00
61573;BME280;47465;43.094;12.434;2023-02-22T00:04:52;99074.28;;;9.61;100.00
61573;BME280;47465;43.094;12.434;2023-02-22T00:07:18;99063.16;;;9.39;100.00
61573;BME280;47465;43.094;12.434;2023-02-22T00:09:45;99061.50;;;9.32;100.00
61573;BME280;47465;43.094;12.434;2023-02-22T00:12:11;99069.53;;;9.29;100.00
61573;BME280;47465;43.094;12.434;2023-02-22T00:14:37;99070.25;;;9.38;100.00
61573;BME280;47465;43.094;12.434;2023-02-22T00:17:04;99043.03;;;9.25;100.00
61573;BME280;47465;43.094;12.434;2023-02-22T00:19:32;99076.38;;;9.43;100.00
61573;BME280;47465;43.094;12.434;2023-02-22T00:21:58;99074.59;;;9.44;100.00
61573;BME280;47465;43.094;12.434;2023-02-22T00:24:24;99053.72;;;9.24;100.00
61573;BME280;47465;43.094;12.434;2023-02-22T00:26:51;99057.22;;;9.24;100.00
61573;BME280;47465;43.094;12.434;2023-02-22T00:29:20;99072.16;;;9.30;100.00
61573;BME280;47465;43.094;12.434;2023-02-22T00:31:45;99059.06;;;9.19;100.00
61573;BME280;47465;43.094;12.434;2023-02-22T00:34:12;99046.72;;;9.17;100.00
61573;BME280;47465;43.094;12.434;2023-02-22T00:36:44;99048.50;;;9.16;100.00
61573;BME280;47465;43.094;12.434;2023-02-22T00:39:09;99051.91;;;9.26;100.00
61573;BME280;47465;43.094;12.434;2023-02-22T00:41:35;99032.41;;;9.27;100.00
61573;BME280;47465;43.094;12.434;2023-02-22T00:44:01;99049.19;;;9.29;100.00
61573;BME280;47465;43.094;12.434;2023-02-22T00:46:27;99023.84;;;9.11;100.00
61573;BME280;47465;43.094;12.434;2023-02-22T00:48:53;99055.44;;;9.25;100.00
61573;BME280;47465;43.094;12.434;2023-02-22T00:51:19;99022.13;;;9.09;100.00
61573;BME280;47465;43.094;12.434;2023-02-22T00:53:46;99021.19;;;9.11;100.00
61573;BME280;47465;43.094;12.434;2023-02-22T00:56:12;99036.19;;;9.14;100.00
61573;BME280;47465;43.094;12.434;2023-02-22T00:58:38;99023.84;;;9.11;100.00
61573;BME280;47465;43.094;12.434;2023-02-22T01:01:04;99028.31;;;9.09;100.00
61573;BME280;47465;43.094;12.434;2023-02-22T01:03:30;99043.13;;;9.19;100.00
61573;BME280;47465;43.094;12.434;2023-02-22T01:05:56;99021.22;;;9.10;100.00
61573;BME280;47465;43.094;12.434;2023-02-22T01:08:22;99039.63;;;9.19;100.00
61573;BME280;47465;43.094;12.434;2023-02-22T01:10:51;99019.44;;;9.10;100.00
61573;BME280;47465;43.094;12.434;2023-02-22T01:13:17;99021.28;;;9.05;100.00
61573;BME280;47465;43.094;12.434;2023-02-22T01:15:44;99030.97;;;9.09;100.00
61573;BME280;47465;43.094;12.434;2023-02-22T01:18:11;99012.59;;;8.95;100.00
61573;BME280;47465;43.094;12.434;2023-02-22T01:20:37;99029.25;;;9.05;100.00
61573;BME280;47465;43.094;12.434;2023-02-22T01:23:05;99008.22;;;8.94;100.00
61573;BME280;47465;43.094;12.434;2023-02-22T01:25:33;99015.22;;;8.98;100.00
61573;BME280;47465;43.094;12.434;2023-02-22T01:28:02;98998.47;;;8.95;100.00
61573;BME280;47465;43.094;12.434;2023-02-22T01:30:30;98994.97;;;8.93;100.00
61573;BME280;47465;43.094;12.434;2023-02-22T01:32:57;98997.59;;;8.94;100.00
61573;BME280;47465;43.094;12.434;2023-02-22T01:35:25;99000.09;;;9.02;100.00
61573;BME280;47465;43.094;12.434;2023-02-22T01:37:52;98992.19;;;9.00;100.00
61573;BME280;47465;43.094;12.434;2023-02-22T01:40:20;98992.19;;;9.00;100.00
61573;BME280;47465;43.094;12.434;2023-02-22T01:42:49;98993.84;;;9.08;100.00
61573;BME280;47465;43.094;12.434;2023-02-22T01:45:42;99002.63;;;9.11;100.00
61573;BME280;47465;43.094;12.434;2023-02-22T01:48:11;99000.00;;;9.08;100.00
61573;BME280;47465;43.094;12.434;2023-02-22T01:50:42;98978.09;;;8.97;100.00
61573;BME280;47465;43.094;12.434;2023-02-22T01:53:11;98994.78;;;9.03;100.00
61573;BME280;47465;43.094;12.434;2023-02-22T01:55:39;98992.22;;;8.97;100.00
61573;BME280;47465;43.094;12.434;2023-02-22T01:58:07;98973.75;;;8.93;100.00
61573;BME280;47465;43.094;12.434;2023-02-22T02:00:33;98979.81;;;9.01;100.00
61573;BME280;47465;43.094;12.434;2023-02-22T02:03:02;98974.63;;;8.93;100.00
61573;BME280;47465;43.094;12.434;2023-02-22T02:05:30;98991.19;;;9.06;100.00
61573;BME280;47465;43.094;12.434;2023-02-22T02:08:03;98972.81;;;8.95;100.00
61573;BME280;47465;43.094;12.434;2023-02-22T02:10:30;98976.31;;;8.97;100.00
61573;BME280;47465;43.094;12.434;2023-02-22T02:12:57;98987.69;;;9.05;100.00
61573;BME280;47465;43.094;12.434;2023-02-22T02:15:25;98990.31;;;9.07;100.00
61573;BME280;47465;43.094;12.434;2023-02-22T02:17:54;98976.38;;;8.96;100.00
61573;BME280;47465;43.094;12.434;2023-02-22T02:20:27;98970.31;;;8.88;100.00
61573;BME280;47465;43.094;12.434;2023-02-22T02:23:03;98976.38;;;8.94;100.00
61573;BME280;47465;43.094;12.434;2023-02-22T02:25:57;98990.47;;;8.98;100.00
61573;BME280;47465;43.094;12.434;2023-02-22T02:32:02;98977.97;;;9.04;100.00
61573;BME280;47465;43.094;12.434;2023-02-22T02:34:35;98975.34;;;9.03;100.00
61573;BME280;47465;43.094;12.434;2023-02-22T02:37:11;98947.41;;;8.82;100.00
61573;BME280;47465;43.094;12.434;2023-02-22T02:39:44;98969.28;;;8.95;100.00
61573;BME280;47465;43.094;12.434;2023-02-22T02:42:16;98948.22;;;8.87;100.00
61573;BME280;47465;43.094;12.434;2023-02-22T02:44:46;98955.25;;;8.90;100.00
61573;BME280;47465;43.094;12.434;2023-02-22T02:47:19;98962.28;;;8.92;100.00
61573;BME280;47465;43.094;12.434;2023-02-22T02:49:50;98957.91;;;8.88;100.00
61573;BME280;47465;43.094;12.434;2023-02-22T02:52:20;98956.19;;;8.87;100.00
61573;BME280;47465;43.094;12.434;2023-02-22T02:54:48;98964.00;;;8.93;100.00
61573;BME280;47465;43.094;12.434;2023-02-22T02:57:15;98963.16;;;8.91;100.00
61573;BME280;47465;43.094;12.434;2023-02-22T02:59:41;98935.16;;;8.76;100.00
61573;BME280;47465;43.094;12.434;2023-02-22T03:02:18;98957.06;;;8.88;100.00
61573;BME280;47465;43.094;12.434;2023-02-22T03:05:08;98961.50;;;8.87;100.00
61573;BME280;47465;43.094;12.434;2023-02-22T03:07:50;98957.84;;;8.91;100.00
61573;BME280;47465;43.094;12.434;2023-02-22T03:10:38;98942.06;;;8.85;100.00
61573;BME280;47465;43.094;12.434;2023-02-22T03:13:12;98946.56;;;8.80;100.00
61573;BME280;47465;43.094;12.434;2023-02-22T03:15:46;98938.59;;;8.81;100.00
61573;BME280;47465;43.094;12.434;2023-02-22T03:18:24;98944.75;;;8.82;100.00
61573;BME280;47465;43.094;12.434;2023-02-22T03:20:58;98944.81;;;8.80;100.00
61573;BME280;47465;43.094;12.434;2023-02-22T03:23:28;98940.38;;;8.79;100.00
61573;BME280;47465;43.094;12.434;2023-02-22T03:26:00;98942.09;;;8.82;100.00
61573;BME280;47465;43.094;12.434;2023-02-22T03:28:29;98958.00;;;8.83;100.00
61573;BME280;47465;43.094;12.434;2023-02-22T03:30:58;98936.06;;;8.74;100.00
61573;BME280;47465;43.094;12.434;2023-02-22T03:33:32;98947.47;;;8.80;100.00
61573;BME280;47465;43.094;12.434;2023-02-22T03:36:06;98956.19;;;8.86;100.00
61573;BME280;47465;43.094;12.434;2023-02-22T03:38:36;98958.84;;;8.87;100.00
61573;BME280;47465;43.094;12.434;2023-02-22T03:41:03;98957.16;;;8.81;100.00
61573;BME280;47465;43.094;12.434;2023-02-22T03:43:35;98953.66;;;8.79;100.00
61573;BME280;47465;43.094;12.434;2023-02-22T03:46:03;98937.94;;;8.67;100.00
61573;BME280;47465;43.094;12.434;2023-02-22T03:48:38;98949.34;;;8.72;100.00
61573;BME280;47465;43.094;12.434;2023-02-22T03:51:09;98957.25;;;8.74;100.00
61573;BME280;47465;43.094;12.434;2023-02-22T03:53:35;98953.72;;;8.76;100.00
61573;BME280;47465;43.094;12.434;2023-02-22T03:56:03;98959.88;;;8.77;100.00
61573;BME280;47465;43.094;12.434;2023-02-22T03:58:33;98954.66;;;8.72;100.00
61573;BME280;47465;43.094;12.434;2023-02-22T04:01:00;98963.38;;;8.80;100.00
61573;BME280;47465;43.094;12.434;2023-02-22T04:03:26;98934.47;;;8.63;100.00
61573;BME280;47465;43.094;12.434;2023-02-22T04:05:54;98952.91;;;8.71;100.00
61573;BME280;47465;43.094;12.434;2023-02-22T04:08:19;98957.34;;;8.71;100.00
61573;BME280;47465;43.094;12.434;2023-02-22T04:10:45;98942.44;;;8.62;100.00
61573;BME280;47465;43.094;12.434;2023-02-22T04:13:11;98942.44;;;8.62;100.00
61573;BME280;47465;43.094;12.434;2023-02-22T04:15:39;98948.59;;;8.66;100.00
61573;BME280;47465;43.094;12.434;2023-02-22T04:18:05;98945.03;;;8.67;100.00
61573;BME280;47465;43.094;12.434;2023-02-22T04:20:31;98949.44;;;8.68;100.00
61573;BME280;47465;43.094;12.434;2023-02-22T04:22:58;98950.31;;;8.68;100.00
61573;BME280;47465;43.094;12.434;2023-02-22T04:25:24;98946.84;;;8.63;100.00
61573;BME280;47465;43.094;12.434;2023-02-22T04:27:50;98957.41;;;8.68;100.00
61573;BME280;47465;43.094;12.434;2023-02-22T04:30:16;98939.91;;;8.56;100.00
61573;BME280;47465;43.094;12.434;2023-02-22T04:32:43;98970.53;;;8.74;100.00
61573;BME280;47465;43.094;12.434;2023-02-22T04:35:09;98941.63;;;8.58;100.00
61573;BME280;47465;43.094;12.434;2023-02-22T04:37:35;98962.78;;;8.61;100.00
61573;BME280;47465;43.094;12.434;2023-02-22T04:40:04;98957.41;;;8.64;100.00
61573;BME280;47465;43.094;12.434;2023-02-22T04:42:32;98954.00;;;8.58;100.00
61573;BME280;47465;43.094;12.434;2023-02-22T04:44:58;98961.00;;;8.63;100.00
61573;BME280;47465;43.094;12.434;2023-02-22T04:47:24;98957.41;;;8.64;100.00
61573;BME280;47465;43.094;12.434;2023-02-22T04:49:50;98968.88;;;8.68;100.00
61573;BME280;47465;43.094;12.434;2023-02-22T04:52:16;98960.13;;;8.61;100.00
61573;BME280;47465;43.094;12.434;2023-02-22T04:54:41;98960.22;;;8.57;100.00
61573;BME280;47465;43.094;12.434;2023-02-22T04:57:09;98946.22;;;8.46;100.00
61573;BME280;47465;43.094;12.434;2023-02-22T04:59:34;98951.38;;;8.56;100.00
61573;BME280;47465;43.094;12.434;2023-02-22T05:02:01;98959.38;;;8.55;100.00
61573;BME280;47465;43.094;12.434;2023-02-22T05:04:26;98941.78;;;8.48;100.00
61573;BME280;47465;43.094;12.434;2023-02-22T05:06:52;98955.72;;;8.62;100.00
61573;BME280;47465;43.094;12.434;2023-02-22T05:09:18;98953.06;;;8.62;100.00
61573;BME280;47465;43.094;12.434;2023-02-22T05:11:44;98938.28;;;8.47;100.00
61573;BME280;47465;43.094;12.434;2023-02-22T05:14:11;98957.56;;;8.57;100.00
61573;BME280;47465;43.094;12.434;2023-02-22T05:16:37;98955.78;;;8.59;100.00
61573;BME280;47465;43.094;12.434;2023-02-22T05:19:04;98952.19;;;8.61;100.00
61573;BME280;47465;43.094;12.434;2023-02-22T05:21:30;98940.81;;;8.55;100.00
61573;BME280;47465;43.094;12.434;2023-02-22T05:23:55;98948.72;;;8.56;100.00
61573;BME280;47465;43.094;12.434;2023-02-22T05:26:22;98952.19;;;8.61;100.00
61573;BME280;47465;43.094;12.434;2023-02-22T05:28:48;98969.72;;;8.69;100.00
61573;BME280;47465;43.094;12.434;2023-02-22T05:31:15;98942.59;;;8.53;100.00
61573;BME280;47465;43.094;12.434;2023-02-22T05:33:41;98966.19;;;8.70;100.00
61573;BME280;47465;43.094;12.434;2023-02-22T05:36:08;98967.94;;;8.71;100.00
61573;BME280;47465;43.094;12.434;2023-02-22T05:38:35;98959.19;;;8.66;100.00
61573;BME280;47465;43.094;12.434;2023-02-22T05:41:08;98951.31;;;8.61;100.00
61573;BME280;47465;43.094;12.434;2023-02-22T05:43:35;98964.41;;;8.70;100.00
61573;BME280;47465;43.094;12.434;2023-02-22T05:46:01;98935.53;;;8.52;100.00
61573;BME280;47465;43.094;12.434;2023-02-22T05:48:28;98953.91;;;8.64;100.00
61573;BME280;47465;43.094;12.434;2023-02-22T05:50:55;98953.13;;;8.57;100.00
61573;BME280;47465;43.094;12.434;2023-02-22T05:53:21;98959.22;;;8.64;100.00
61573;BME280;47465;43.094;12.434;2023-02-22T05:55:48;98960.94;;;8.65;100.00
61573;BME280;47465;43.094;12.434;2023-02-22T05:58:14;98955.78;;;8.56;100.00
61573;BME280;47465;43.094;12.434;2023-02-22T06:00:39;98951.44;;;8.52;100.00
61573;BME280;47465;43.094;12.434;2023-02-22T06:03:07;98948.88;;;8.47;100.00
61573;BME280;47465;43.094;12.434;2023-02-22T06:05:35;98969.03;;;8.59;100.00
61573;BME280;47465;43.094;12.434;2023-02-22T06:08:02;98950.66;;;8.45;100.00
61573;BME280;47465;43.094;12.434;2023-02-22T06:10:29;98961.19;;;8.50;100.00
61573;BME280;47465;43.094;12.434;2023-02-22T06:12:55;98962.88;;;8.55;100.00
61573;BME280;47465;43.094;12.434;2023-02-22T06:15:23;98952.38;;;8.48;100.00
61573;BME280;47465;43.094;12.434;2023-02-22T06:17:49;98977.75;;;8.64;100.00
61573;BME280;47465;43.094;12.434;2023-02-22T06:20:17;98984.88;;;8.62;100.00
61573;BME280;47465;43.094;12.434;2023-02-22T06:22:47;98987.50;;;8.62;100.00
61573;BME280;47465;43.094;12.434;2023-02-22T06:25:15;98977.00;;;8.54;100.00
61573;BME280;47465;43.094;12.434;2023-02-22T06:27:41;98987.50;;;8.62;100.00
61573;BME280;47465;43.094;12.434;2023-02-22T06:30:08;98977.00;;;8.56;100.00
61573;BME280;47465;43.094;12.434;2023-02-22T06:32:34;98991.94;;;8.61;100.00
61573;BME280;47465;43.094;12.434;2023-02-22T06:35:00;98970.94;;;8.49;100.00
61573;BME280;47465;43.094;12.434;2023-02-22T06:37:26;98984.09;;;8.54;100.00
61573;BME280;47465;43.094;12.434;2023-02-22T06:39:54;98971.84;;;8.47;100.00
61573;BME280;47465;43.094;12.434;2023-02-22T06:42:20;98973.59;;;8.48;100.00
61573;BME280;47465;43.094;12.434;2023-02-22T06:44:45;98978.03;;;8.47;100.00
61573;BME280;47465;43.094;12.434;2023-02-22T06:47:11;98977.09;;;8.50;100.00
61573;BME280;47465;43.094;12.434;2023-02-22T06:49:37;98977.09;;;8.50;100.00
61573;BME280;47465;43.094;12.434;2023-02-22T06:52:03;98984.16;;;8.52;100.00
61573;BME280;47465;43.094;12.434;2023-02-22T06:54:30;98991.97;;;8.60;100.00
61573;BME280;47465;43.094;12.434;2023-02-22T06:56:57;98985.88;;;8.55;100.00
61573;BME280;47465;43.094;12.434;2023-02-22T06:59:23;99005.97;;;8.68;100.00
61573;BME280;47465;43.094;12.434;2023-02-22T07:01:49;98985.88;;;8.53;100.00
61573;BME280;47465;43.094;12.434;2023-02-22T07:04:15;98997.25;;;8.60;100.00
61573;BME280;47465;43.094;12.434;2023-02-22T07:06:46;99004.22;;;8.67;100.00
61573;BME280;47465;43.094;12.434;2023-02-22T07:09:13;98986.66;;;8.60;100.00
61573;BME280;47465;43.094;12.434;2023-02-22T07:11:39;98994.53;;;8.66;100.00
61573;BME280;47465;43.094;12.434;2023-02-22T07:14:07;99000.63;;;8.71;100.00
61573;BME280;47465;43.094;12.434;2023-02-22T07:16:48;99003.25;;;8.73;100.00
61573;BME280;47465;43.094;12.434;2023-02-22T07:19:22;98985.78;;;8.61;100.00
61573;BME280;47465;43.094;12.434;2023-02-22T07:21:49;98995.41;;;8.65;100.00
61573;BME280;47465;43.094;12.434;2023-02-22T07:24:23;99011.06;;;8.82;100.00
61573;BME280;47465;43.094;12.434;2023-02-22T07:26:48;99010.16;;;8.83;100.00
61573;BME280;47465;43.094;12.434;2023-02-22T07:29:16;99006.66;;;8.81;100.00
61573;BME280;47465;43.094;12.434;2023-02-22T07:31:42;98997.94;;;8.74;100.00
61573;BME280;47465;43.094;12.434;2023-02-22T07:34:08;98990.00;;;8.73;100.00
61573;BME280;47465;43.094;12.434;2023-02-22T07:36:34;99004.88;;;8.83;100.00
61573;BME280;47465;43.094;12.434;2023-02-22T07:39:00;99015.25;;;8.95;100.00
61573;BME280;47465;43.094;12.434;2023-02-22T07:41:26;98995.03;;;8.90;100.00
61573;BME280;47465;43.094;12.434;2023-02-22T07:43:51;99004.59;;;8.98;100.00
61573;BME280;47465;43.094;12.434;2023-02-22T07:46:19;99019.47;;;9.09;100.00
61573;BME280;47465;43.094;12.434;2023-02-22T07:48:45;98997.44;;;9.03;100.00
61573;BME280;47465;43.094;12.434;2023-02-22T07:51:14;99006.97;;;9.15;100.00
61573;BME280;47465;43.094;12.434;2023-02-22T07:53:40;99005.97;;;9.21;100.00
61573;BME280;47465;43.094;12.434;2023-02-22T07:56:05;99025.19;;;9.35;100.00
61573;BME280;47465;43.094;12.434;2023-02-22T07:58:33;99016.41;;;9.30;100.00
61573;BME280;47465;43.094;12.434;2023-02-22T08:01:00;99021.59;;;9.38;100.00
61573;BME280;47465;43.094;12.434;2023-02-22T08:03:30;98994.44;;;9.23;100.00
61573;BME280;47465;43.094;12.434;2023-02-22T08:05:58;99015.47;;;9.34;100.00
61573;BME280;47465;43.094;12.434;2023-02-22T08:08:25;99029.47;;;9.44;100.00
61573;BME280;47465;43.094;12.434;2023-02-22T08:10:51;99006.59;;;9.37;100.00
61573;BME280;47465;43.094;12.434;2023-02-22T08:13:18;99009.00;;;9.49;100.00
61573;BME280;47465;43.094;12.434;2023-02-22T08:15:44;99015.03;;;9.57;100.00
61573;BME280;47465;43.094;12.434;2023-02-22T08:18:12;99025.56;;;9.63;100.00
61573;BME280;47465;43.094;12.434;2023-02-22T08:20:42;99009.66;;;9.60;100.00
61573;BME280;47465;43.094;12.434;2023-02-22T08:23:09;99010.50;;;9.62;100.00
61573;BME280;47465;43.094;12.434;2023-02-22T08:25:35;99001.59;;;9.66;100.00
61573;BME280;47465;43.094;12.434;2023-02-22T08:28:03;98987.44;;;9.66;100.00
61573;BME280;47465;43.094;12.434;2023-02-22T08:30:33;99002.31;;;9.75;100.00
61573;BME280;47465;43.094;12.434;2023-02-22T08:33:00;98990.59;;;9.85;100.00
61573;BME280;47465;43.094;12.434;2023-02-22T08:35:28;99011.47;;;10.03;100.00
61573;BME280;47465;43.094;12.434;2023-02-22T08:37:57;98988.63;;;9.95;100.00
61573;BME280;47465;43.094;12.434;2023-02-22T08:40:25;99006.78;;;10.15;100.00
61573;BME280;47465;43.094;12.434;2023-02-22T08:42:52;98979.38;;;10.13;100.00
61573;BME280;47465;43.094;12.434;2023-02-22T08:45:18;98988.13;;;10.19;100.00
61573;BME280;47465;43.094;12.434;2023-02-22T08:47:45;99008.03;;;10.40;100.00
61573;BME280;47465;43.094;12.434;2023-02-22T08:50:16;98996.44;;;10.44;100.00
61573;BME280;47465;43.094;12.434;2023-02-22T08:52:42;99003.19;;;10.58;100.00
61573;BME280;47465;43.094;12.434;2023-02-22T08:55:09;99008.53;;;10.58;100.00
61573;BME280;47465;43.094;12.434;2023-02-22T08:57:35;98993.41;;;10.60;100.00
61573;BME280;47465;43.094;12.434;2023-02-22T09:00:02;98995.84;;;10.69;100.00
61573;BME280;47465;43.094;12.434;2023-02-22T09:02:29;99012.47;;;10.79;100.00
61573;BME280;47465;43.094;12.434;2023-02-22T09:04:55;99001.81;;;10.79;100.00
61573;BME280;47465;43.094;12.434;2023-02-22T09:07:21;99007.63;;;10.95;99.55
61573;BME280;47465;43.094;12.434;2023-02-22T09:09:46;99008.34;;;11.03;97.16
61573;BME280;47465;43.094;12.434;2023-02-22T09:12:14;98987.19;;;10.97;97.00
61573;BME280;47465;43.094;12.434;2023-02-22T09:14:40;99006.13;;;11.19;97.40
61573;BME280;47465;43.094;12.434;2023-02-22T09:17:09;98996.53;;;11.13;95.46
61573;BME280;47465;43.094;12.434;2023-02-22T09:19:37;98996.56;;;11.12;95.45
61573;BME280;47465;43.094;12.434;2023-02-22T09:22:03;98979.91;;;11.03;95.18
61573;BME280;47465;43.094;12.434;2023-02-22T09:24:29;98978.59;;;10.85;95.61
61573;BME280;47465;43.094;12.434;2023-02-22T09:26:55;98985.50;;;10.93;95.39
61573;BME280;47465;43.094;12.434;2023-02-22T09:29:25;98983.53;;;11.01;95.35
61573;BME280;47465;43.094;12.434;2023-02-22T09:31:52;98975.84;;;11.24;94.06
61573;BME280;47465;43.094;12.434;2023-02-22T09:34:20;98999.13;;;11.49;93.63
61573;BME280;47465;43.094;12.434;2023-02-22T09:36:48;98983.78;;;11.59;92.59
61573;BME280;47465;43.094;12.434;2023-02-22T09:39:15;98995.66;;;11.80;92.48
61573;BME280;47465;43.094;12.434;2023-02-22T09:41:46;98974.38;;;11.78;91.80
61573;BME280;47465;43.094;12.434;2023-02-22T09:44:19;98960.66;;;11.92;90.89
61573;BME280;47465;43.094;12.434;2023-02-22T09:46:49;98970.81;;;12.09;90.14
61573;BME280;47465;43.094;12.434;2023-02-22T09:49:19;98957.13;;;12.21;89.46
61573;BME280;47465;43.094;12.434;2023-02-22T09:51:49;98967.00;;;12.47;87.93
61573;BME280;47465;43.094;12.434;2023-02-22T09:54:20;98963.09;;;12.58;86.67
61573;BME280;47465;43.094;12.434;2023-02-22T09:56:49;98967.84;;;12.76;86.18
61573;BME280;47465;43.094;12.434;2023-02-22T09:59:22;98974.22;;;12.70;86.31
61573;BME280;47465;43.094;12.434;2023-02-22T10:01:56;98955.56;;;12.70;86.78
61573;BME280;47465;43.094;12.434;2023-02-22T10:04:24;98944.53;;;12.81;85.35
61573;BME280;47465;43.094;12.434;2023-02-22T10:07:01;98970.81;;;12.93;83.90
61573;BME280;47465;43.094;12.434;2023-02-22T10:09:31;98955.59;;;12.97;84.34
61573;BME280;47465;43.094;12.434;2023-02-22T10:12:02;98956.09;;;13.08;83.28
61573;BME280;47465;43.094;12.434;2023-02-22T10:14:45;98942.19;;;13.24;81.60
61573;BME280;47465;43.094;12.434;2023-02-22T10:17:23;98947.06;;;13.38;81.86
61573;BME280;47465;43.094;12.434;2023-02-22T10:20:03;98922.81;;;13.44;81.71
61573;BME280;47465;43.094;12.434;2023-02-22T10:22:42;98936.69;;;13.79;79.91
61573;BME280;47465;43.094;12.434;2023-02-22T10:25:12;98946.97;;;13.41;78.84
61573;BME280;47465;43.094;12.434;2023-02-22T10:27:46;98949.81;;;13.09;81.13
61573;BME280;47465;43.094;12.434;2023-02-22T10:30:18;98925.59;;;12.89;83.09
61573;BME280;47465;43.094;12.434;2023-02-22T10:32:49;98922.16;;;13.12;82.89
61573;BME280;47465;43.094;12.434;2023-02-22T10:35:21;98913.47;;;13.32;81.80
61573;BME280;47465;43.094;12.434;2023-02-22T10:37:50;98914.19;;;13.61;78.86
61573;BME280;47465;43.094;12.434;2023-02-22T10:40:19;98904.59;;;13.79;79.64
61573;BME280;47465;43.094;12.434;2023-02-22T10:42:48;98910.72;;;14.28;78.37
61573;BME280;47465;43.094;12.434;2023-02-22T10:45:20;98928.00;;;14.65;75.12
61573;BME280;47465;43.094;12.434;2023-02-22T10:47:50;98912.75;;;14.67;74.33
61573;BME280;47465;43.094;12.434;2023-02-22T10:50:19;98919.59;;;14.74;74.22
61573;BME280;47465;43.094;12.434;2023-02-22T10:52:45;98913.94;;;14.60;73.21
61573;BME280;47465;43.094;12.434;2023-02-22T10:55:12;98889.28;;;14.29;72.28
61573;BME280;47465;43.094;12.434;2023-02-22T10:57:39;98874.75;;;13.91;73.84
61573;BME280;47465;43.094;12.434;2023-02-22T11:00:15;98883.34;;;13.52;76.28
61573;BME280;47465;43.094;12.434;2023-02-22T11:02:52;98879.38;;;13.39;78.42
61573;BME280;47465;43.094;12.434;2023-02-22T11:05:33;98894.34;;;12.92;81.22
61573;BME280;47465;43.094;12.434;2023-02-22T11:08:22;98901.91;;;13.05;82.12
61573;BME280;47465;43.094;12.434;2023-02-22T11:10:50;98891.19;;;13.06;82.31
61573;BME280;47465;43.094;12.434;2023-02-22T11:13:21;98864.53;;;13.05;80.31
61573;BME280;47465;43.094;12.434;2023-02-22T11:15:50;98871.19;;;13.18;79.14
61573;BME280;47465;43.094;12.434;2023-02-22T11:18:23;98854.72;;;13.05;78.04
61573;BME280;47465;43.094;12.434;2023-02-22T11:20:59;98869.84;;;13.06;78.68
61573;BME280;47465;43.094;12.434;2023-02-22T11:23:25;98864.00;;;12.95;77.45
61573;BME280;47465;43.094;12.434;2023-02-22T11:26:01;98855.72;;;12.51;81.30
61573;BME280;47465;43.094;12.434;2023-02-22T11:28:29;98868.09;;;12.53;82.42
61573;BME280;47465;43.094;12.434;2023-02-22T11:30:56;98864.03;;;12.68;81.13
61573;BME280;47465;43.094;12.434;2023-02-22T11:33:25;98863.50;;;12.57;81.37
61573;BME280;47465;43.094;12.434;2023-02-22T11:35:54;98861.13;;;12.49;81.10
61573;BME280;47465;43.094;12.434;2023-02-22T11:38:21;98863.00;;;12.46;82.29
61573;BME280;47465;43.094;12.434;2023-02-22T11:41:05;98852.66;;;12.37;82.41
61573;BME280;47465;43.094;12.434;2023-02-22T11:43:32;98848.91;;;12.42;82.19
61573;BME280;47465;43.094;12.434;2023-02-22T11:46:01;98854.06;;;12.47;81.97
61573;BME280;47465;43.094;12.434;2023-02-22T11:48:31;98855.19;;;12.66;79.36
61573;BME280;47465;43.094;12.434;2023-02-22T11:51:13;98860.84;;;12.57;79.88
61573;BME280;47465;43.094;12.434;2023-02-22T11:53:58;98861.22;;;12.46;81.33
61573;BME280;47465;43.094;12.434;2023-02-22T11:56:33;98845.47;;;12.39;81.82
61573;BME280;47465;43.094;12.434;2023-02-22T11:59:09;98846.31;;;12.41;81.67
61573;BME280;47465;43.094;12.434;2023-02-22T12:01:42;98836.28;;;12.47;80.41
61573;BME280;47465;43.094;12.434;2023-02-22T12:04:42;98832.97;;;12.41;80.87
61573;BME280;47465;43.094;12.434;2023-02-22T12:07:28;98823.16;;;12.41;81.88
61573;BME280;47465;43.094;12.434;2023-02-22T12:10:01;98808.69;;;12.48;81.35
61573;BME280;47465;43.094;12.434;2023-02-22T12:12:36;98805.00;;;12.52;81.29
61573;BME280;47465;43.094;12.434;2023-02-22T12:15:11;98832.34;;;12.84;79.58
61573;BME280;47465;43.094;12.434;2023-02-22T12:17:48;98825.53;;;13.01;75.71
61573;BME280;47465;43.094;12.434;2023-02-22T12:20:21;98822.13;;;12.97;76.96
61573;BME280;47465;43.094;12.434;2023-02-22T12:22:58;98831.59;;;13.06;77.13
61573;BME280;47465;43.094;12.434;2023-02-22T12:25:30;98789.84;;;12.80;77.11
61573;BME280;47465;43.094;12.434;2023-02-22T12:28:06;98801.06;;;12.88;76.91
61573;BME280;47465;43.094;12.434;2023-02-22T12:30:38;98784.53;;;12.78;76.85
61573;BME280;47465;43.094;12.434;2023-02-22T12:33:11;98793.38;;;12.80;76.66
61573;BME280;47465;43.094;12.434;2023-02-22T12:35:43;98799.13;;;12.93;77.38
61573;BME280;47465;43.094;12.434;2023-02-22T12:38:17;98805.81;;;13.05;76.67
61573;BME280;47465;43.094;12.434;2023-02-22T12:40:52;98788.25;;;12.99;77.54
61573;BME280;47465;43.094;12.434;2023-02-22T12:43:25;98792.41;;;13.06;77.75
61573;BME280;47465;43.094;12.434;2023-02-22T12:46:00;98798.63;;;13.07;76.26
61573;BME280;47465;43.094;12.434;2023-02-22T12:48:42;98802.56;;;13.20;75.70
61573;BME280;47465;43.094;12.434;2023-02-22T12:51:28;98784.09;;;13.14;75.60
61573;BME280;47465;43.094;12.434;2023-02-22T12:54:04;98809.94;;;13.39;75.26
61573;BME280;47465;43.094;12.434;2023-02-22T12:56:40;98808.19;;;13.61;73.19
61573;BME280;47465;43.094;12.434;2023-02-22T12:59:11;98782.28;;;13.40;73.46
61573;BME280;47465;43.094;12.434;2023-02-22T13:01:43;98789.38;;;13.41;73.71
61573;BME280;47465;43.094;12.434;2023-02-22T13:04:10;98791.97;;;13.42;74.61
61573;BME280;47465;43.094;12.434;2023-02-22T13:06:49;98797.63;;;13.58;75.41